Terminal Aerodrome Forecast
Issued by NWS Dodge City, KS

Home | Current Version | Previous Version | Graphics & Text | Print | Product List | Glossary Off
Versions: 1 2 3 4 5 6 7 8 9 10 11 12 13 14 15 16 17 18 19 20 21 22 23 24 25 26 27 28 29 30 31

000
FTUS43 KDDC 011243 AAA
TAFDDC
TAF AMD
KDDC 011243Z 0113/0212 14011KT P6SM SCT020
     FM011600 16017G23KT P6SM SCT050
     FM020200 15013KT P6SM BKN035
     FM020600 14012KT P6SM BKN020
     FM020900 14012KT 3SM BR BKN007=

USA.gov is the U.S. government's official web portal to all federal, state and local government web resources and services.